Time;durP1;ratioP1;P1;durP2;ratioP2;P2;SDS_P1;SDS_P2;PMS_P1;PMS_P2;Temp;Humidity;BMP_temperature;BMP_pressure;BME280_temperature;BME280_humidity;BME280_pressure;Samples;Min_cycle;Max_cycle;Signal;HPM_P1;HPM_P2
2022/03/31 00:00:35;;;;;;;9.20;5.25;;;11.30;63.00;;;;;;5052441;28;20176;-75
2022/03/31 00:03:04;;;;;;;5.70;4.47;;;11.20;63.30;;;;;;5052743;28;20169;-75
2022/03/31 00:05:30;;;;;;;9.52;5.60;;;11.20;63.10;;;;;;5052546;28;20188;-75
2022/03/31 00:07:58;;;;;;;6.72;6.10;;;11.10;64.40;;;;;;5052394;28;20169;-75
2022/03/31 00:10:29;;;;;;;8.02;5.75;;;11.00;64.30;;;;;;5051085;28;20548;-75
2022/03/31 00:12:56;;;;;;;10.57;6.20;;;10.90;66.40;;;;;;5052514;28;20212;-75
2022/03/31 00:15:24;;;;;;;8.52;6.18;;;10.80;65.70;;;;;;5052404;28;20189;-75
2022/03/31 00:17:50;;;;;;;8.00;5.82;;;10.70;66.60;;;;;;5050502;28;20225;-75
2022/03/31 00:20:15;;;;;;;7.07;6.35;;;10.60;67.00;;;;;;5051940;28;20196;-75
2022/03/31 00:22:42;;;;;;;6.93;6.23;;;10.50;71.50;;;;;;5052335;28;20629;-75
2022/03/31 00:25:10;;;;;;;7.15;6.45;;;10.40;71.40;;;;;;5050918;28;20189;-75
2022/03/31 00:27:37;;;;;;;8.30;6.55;;;10.30;71.50;;;;;;5052136;28;20177;-75
2022/03/31 00:30:05;;;;;;;8.10;5.50;;;10.20;73.90;;;;;;5055240;28;20169;-76
2022/03/31 00:32:35;;;;;;;7.22;6.15;;;10.10;73.80;;;;;;5052356;28;20209;-75
2022/03/31 00:35:01;;;;;;;5.95;5.35;;;10.10;74.70;;;;;;5051935;28;20243;-75
2022/03/31 00:37:27;;;;;;;7.88;6.50;;;10.00;75.90;;;;;;5050681;28;20542;-76
2022/03/31 00:39:54;;;;;;;7.80;7.18;;;9.90;78.20;;;;;;5051959;28;20272;-75
2022/03/31 00:42:21;;;;;;;7.78;6.32;;;9.90;84.90;;;;;;5051853;28;20176;-75
2022/03/31 00:44:46;;;;;;;7.72;6.93;;;9.80;83.30;;;;;;5050447;28;20207;-75
2022/03/31 00:47:12;;;;;;;8.53;7.30;;;9.80;83.50;;;;;;5050523;28;20255;-75
2022/03/31 00:49:39;;;;;;;8.77;6.80;;;9.80;87.00;;;;;;5051604;28;20173;-75
2022/03/31 00:52:05;;;;;;;11.02;7.93;;;9.80;85.10;;;;;;5051925;28;20177;-75
2022/03/31 00:54:32;;;;;;;7.50;6.70;;;9.80;87.40;;;;;;5051882;28;20239;-75
2022/03/31 00:57:00;;;;;;;7.38;6.40;;;9.80;87.00;;;;;;5051907;28;20541;-75
2022/03/31 00:59:27;;;;;;;11.75;7.50;;;9.80;86.70;;;;;;5051572;28;20299;-75
2022/03/31 01:01:53;;;;;;;9.90;6.60;;;9.80;87.10;;;;;;5050371;28;20176;-75
2022/03/31 01:04:19;;;;;;;10.73;8.50;;;9.80;87.80;;;;;;5050559;28;20597;-75
2022/03/31 01:06:45;;;;;;;8.40;6.60;;;9.80;90.30;;;;;;5054357;28;20217;-75
2022/03/31 01:09:13;;;;;;;9.23;6.67;;;9.80;90.20;;;;;;5052191;28;20203;-75
2022/03/31 01:11:39;;;;;;;9.65;7.93;;;9.80;90.20;;;;;;5051591;28;20567;-75
2022/03/31 01:14:09;;;;;;;12.02;8.70;;;9.80;90.80;;;;;;5051582;28;20169;-76
2022/03/31 01:16:36;;;;;;;9.65;8.18;;;9.80;91.00;;;;;;5051920;28;20226;-76
2022/03/31 01:19:06;;;;;;;9.43;7.38;;;9.80;91.10;;;;;;5051295;28;20200;-75
2022/03/31 01:21:43;;;;;;;12.45;7.45;;;9.80;91.90;;;;;;5051320;28;20173;-76
2022/03/31 01:24:10;;;;;;;7.78;6.88;;;9.90;92.20;;;;;;5051482;28;20273;-76
2022/03/31 01:26:40;;;;;;;11.35;8.60;;;9.90;92.20;;;;;;5051289;28;20184;-76
2022/03/31 01:29:08;;;;;;;11.68;7.35;;;9.90;92.80;;;;;;5053250;28;20546;-75
2022/03/31 01:31:35;;;;;;;9.60;8.60;;;9.90;93.10;;;;;;5055483;28;20184;-75
2022/03/31 01:34:01;;;;;;;11.27;8.77;;;9.90;94.00;;;;;;5054323;28;20177;-76
2022/03/31 01:36:27;;;;;;;9.93;8.45;;;9.90;93.90;;;;;;5055550;28;20553;-76
2022/03/31 01:38:55;;;;;;;10.48;9.10;;;9.90;94.10;;;;;;5055152;28;20204;-75
2022/03/31 01:41:23;;;;;;;11.95;9.43;;;9.90;95.30;;;;;;5055215;28;20244;-76
2022/03/31 01:43:50;;;;;;;9.93;8.93;;;9.90;95.00;;;;;;5058619;28;20193;-76
2022/03/31 01:46:16;;;;;;;12.90;9.15;;;10.00;94.50;;;;;;5054256;28;20212;-75
2022/03/31 01:48:42;;;;;;;10.85;8.88;;;10.00;94.70;;;;;;5055010;28;20161;-76
2022/03/31 01:51:07;;;;;;;10.03;8.30;;;10.00;94.80;;;;;;5055140;28;20215;-76
2022/03/31 01:53:37;;;;;;;10.80;9.40;;;10.00;95.00;;;;;;5053853;28;20185;-75
2022/03/31 01:56:04;;;;;;;12.90;10.93;;;10.00;95.70;;;;;;5054954;28;20204;-75
2022/03/31 01:58:30;;;;;;;11.98;10.63;;;9.90;96.00;;;;;;5054659;28;20169;-76
2022/03/31 02:00:57;;;;;;;13.70;11.35;;;9.90;96.80;;;;;;5054892;28;20169;-75
2022/03/31 02:03:24;;;;;;;15.07;11.18;;;9.90;96.90;;;;;;5055112;28;20572;-75
2022/03/31 02:05:51;;;;;;;12.95;10.65;;;9.90;97.00;;;;;;5054730;28;20185;-75
2022/03/31 02:08:17;;;;;;;11.38;9.93;;;9.90;97.30;;;;;;5054277;28;20173;-75
2022/03/31 02:10:43;;;;;;;12.48;9.95;;;9.90;97.60;;;;;;5053039;28;20173;-75
2022/03/31 02:13:09;;;;;;;12.93;10.70;;;9.90;97.80;;;;;;5054957;28;20175;-75
2022/03/31 02:15:35;;;;;;;17.27;10.33;;;9.90;97.80;;;;;;5054908;28;20576;-75
2022/03/31 02:18:02;;;;;;;14.32;12.80;;;9.90;98.10;;;;;;5054490;28;20168;-75
2022/03/31 02:20:30;;;;;;;13.52;9.95;;;9.90;98.30;;;;;;5057478;28;20279;-75
2022/03/31 02:23:04;;;;;;;14.40;10.93;;;9.90;99.10;;;;;;5056376;28;20252;-76
2022/03/31 02:25:29;;;;;;;14.18;10.35;;;9.90;99.00;;;;;;5054494;28;20268;-76
2022/03/31 02:27:55;;;;;;;12.83;11.23;;;9.80;99.00;;;;;;5053088;28;20597;-76
2022/03/31 02:30:22;;;;;;;13.17;10.27;;;9.80;99.90;;;;;;5054587;28;20195;-75
2022/03/31 02:32:50;;;;;;;14.00;10.73;;;9.80;99.50;;;;;;5054675;28;20576;-76
2022/03/31 02:35:17;;;;;;;14.43;12.65;;;9.80;99.60;;;;;;5053172;28;20295;-76
2022/03/31 02:37:43;;;;;;;15.65;10.93;;;9.70;99.90;;;;;;5054072;28;20204;-76
2022/03/31 02:40:09;;;;;;;12.20;10.40;;;9.70;99.90;;;;;;5053702;28;20612;-76
2022/03/31 02:42:35;;;;;;;14.90;11.63;;;9.70;99.90;;;;;;5052995;28;20556;-76
2022/03/31 02:45:03;;;;;;;12.73;11.10;;;9.70;99.90;;;;;;5054134;28;20207;-76
2022/03/31 02:47:29;;;;;;;14.52;11.70;;;9.60;99.90;;;;;;5053961;28;20165;-75
2022/03/31 02:49:56;;;;;;;13.77;11.30;;;9.60;99.90;;;;;;5052875;28;20264;-76
2022/03/31 02:52:22;;;;;;;12.75;10.48;;;9.60;99.90;;;;;;5054245;28;20196;-75
2022/03/31 02:57:32;;;;;;;13.48;10.70;;;9.60;99.90;;;;;;5056124;28;20195;-76
2022/03/31 02:59:58;;;;;;;15.87;13.30;;;9.60;99.90;;;;;;5053419;28;20213;-75
2022/03/31 03:02:23;;;;;;;13.97;11.20;;;9.60;99.90;;;;;;5053921;28;20601;-76
2022/03/31 03:04:50;;;;;;;13.20;10.97;;;9.50;99.90;;;;;;5053782;28;20193;-76
2022/03/31 03:07:15;;;;;;;15.18;11.20;;;9.50;99.90;;;;;;5053550;28;20175;-76
2022/03/31 03:09:41;;;;;;;14.60;12.40;;;9.50;99.90;;;;;;5053668;28;20766;-76
2022/03/31 03:12:08;;;;;;;19.90;12.73;;;9.50;99.90;;;;;;5053773;28;20564;-76
2022/03/31 03:14:34;;;;;;;18.52;12.65;;;9.50;99.90;;;;;;5052440;28;20271;-75
2022/03/31 03:17:00;;;;;;;15.70;12.03;;;9.50;99.90;;;;;;5052293;28;20697;-76
2022/03/31 03:19:26;;;;;;;14.55;11.40;;;9.40;99.90;;;;;;5051968;28;20708;-75
2022/03/31 03:21:52;;;;;;;19.87;15.13;;;9.40;99.90;;;;;;5053539;28;20165;-76
2022/03/31 03:24:18;;;;;;;19.30;13.40;;;9.40;99.90;;;;;;5053377;28;20172;-76
2022/03/31 03:26:44;;;;;;;16.85;13.70;;;9.30;99.90;;;;;;5053385;28;20161;-76
2022/03/31 03:29:09;;;;;;;18.37;14.20;;;9.30;99.90;;;;;;5053232;28;20169;-76
2022/03/31 03:31:36;;;;;;;19.80;15.67;;;9.30;99.90;;;;;;5053175;28;20180;-76
2022/03/31 03:34:02;;;;;;;14.45;12.77;;;9.30;99.90;;;;;;5053490;28;20179;-76
2022/03/31 03:36:27;;;;;;;19.70;13.90;;;9.20;99.90;;;;;;5056089;28;20284;-75
2022/03/31 03:38:53;;;;;;;16.40;12.47;;;9.20;99.90;;;;;;5052995;28;20579;-76
2022/03/31 03:41:19;;;;;;;15.67;11.00;;;9.20;99.90;;;;;;5053139;28;20188;-76
2022/03/31 03:43:44;;;;;;;17.67;12.90;;;9.20;99.90;;;;;;5053182;28;20693;-75
2022/03/31 03:46:11;;;;;;;15.07;12.60;;;9.20;99.90;;;;;;5051766;28;20204;-76
2022/03/31 03:48:37;;;;;;;14.88;13.27;;;9.20;99.90;;;;;;5051776;28;20176;-76
2022/03/31 03:51:02;;;;;;;18.08;11.80;;;9.20;99.90;;;;;;5052272;28;20173;-76
2022/03/31 03:53:28;;;;;;;19.57;13.03;;;9.20;99.90;;;;;;5052962;28;20164;-76
2022/03/31 03:55:54;;;;;;;15.03;12.53;;;9.20;99.90;;;;;;5052778;28;21070;-76
2022/03/31 03:58:19;;;;;;;14.07;11.73;;;9.20;99.90;;;;;;5052506;28;20552;-75
2022/03/31 04:00:46;;;;;;;14.20;10.98;;;9.20;99.90;;;;;;5052562;28;20304;-76
2022/03/31 04:03:12;;;;;;;14.57;11.80;;;9.20;99.90;;;;;;5052744;28;20595;-75
2022/03/31 04:05:38;;;;;;;20.57;13.30;;;9.20;99.90;;;;;;5052728;28;20220;-76
2022/03/31 04:08:04;;;;;;;14.57;11.73;;;9.20;99.90;;;;;;5052315;28;20555;-76
2022/03/31 04:10:32;;;;;;;14.23;10.93;;;9.10;99.90;;;;;;5052349;28;20173;-76
2022/03/31 04:12:57;;;;;;;14.27;11.55;;;9.10;99.90;;;;;;5056720;28;20169;-76
2022/03/31 04:15:23;;;;;;;18.67;13.93;;;9.10;99.90;;;;;;5052459;28;20246;-76
2022/03/31 04:17:49;;;;;;;22.17;12.77;;;9.10;99.90;;;;;;5051003;28;20668;-76
2022/03/31 04:20:15;;;;;;;14.23;12.17;;;9.10;99.90;;;;;;5052271;28;20672;-75
2022/03/31 04:22:41;;;;;;;13.88;11.50;;;9.00;99.90;;;;;;5052687;28;20173;-75
2022/03/31 04:25:08;;;;;;;13.77;12.43;;;9.00;99.90;;;;;;5052362;28;20280;-75
2022/03/31 04:27:36;;;;;;;14.57;11.82;;;9.00;99.90;;;;;;5034314;28;20165;-75
2022/03/31 04:30:08;;;;;;;13.30;11.88;;;9.00;99.90;;;;;;5052090;28;20165;-75
2022/03/31 04:32:33;;;;;;;11.68;9.60;;;9.00;99.90;;;;;;5050997;28;20173;-76
2022/03/31 04:34:59;;;;;;;20.93;13.50;;;8.90;99.90;;;;;;5051986;28;20584;-76
2022/03/31 04:37:25;;;;;;;14.23;12.23;;;8.90;99.90;;;;;;5051904;28;20598;-76
2022/03/31 04:39:51;;;;;;;10.87;9.70;;;8.90;99.90;;;;;;5053670;28;20346;-76
2022/03/31 04:42:16;;;;;;;15.73;11.73;;;8.90;99.90;;;;;;5052204;28;20314;-75
2022/03/31 04:44:42;;;;;;;15.87;12.27;;;8.90;99.90;;;;;;5051987;28;20619;-76
2022/03/31 04:47:11;;;;;;;16.70;12.10;;;8.80;99.90;;;;;;5051340;28;20169;-80
2022/03/31 04:49:37;;;;;;;16.05;12.23;;;8.80;99.90;;;;;;5055973;28;20260;-80
2022/03/31 04:52:04;;;;;;;13.60;11.87;;;8.80;99.90;;;;;;5052291;28;20200;-80
2022/03/31 04:54:30;;;;;;;17.90;12.43;;;8.80;99.90;;;;;;5034053;28;20173;-80
2022/03/31 04:56:56;;;;;;;16.10;11.70;;;8.80;99.90;;;;;;5051995;28;20199;-79
2022/03/31 04:59:21;;;;;;;17.30;13.60;;;8.80;99.90;;;;;;5051535;28;20611;-79
2022/03/31 05:01:48;;;;;;;15.27;11.73;;;8.80;99.90;;;;;;5051875;28;20317;-79
2022/03/31 05:04:14;;;;;;;14.70;12.38;;;8.80;99.90;;;;;;5051404;28;20560;-78
2022/03/31 05:06:40;;;;;;;14.50;11.67;;;8.80;99.90;;;;;;5050701;28;20173;-80
2022/03/31 05:09:06;;;;;;;15.07;12.57;;;8.80;99.90;;;;;;5051934;28;20556;-80
2022/03/31 05:11:31;;;;;;;16.17;12.57;;;8.80;99.90;;;;;;5051748;28;20267;-80
2022/03/31 05:13:57;;;;;;;17.73;12.97;;;8.80;99.90;;;;;;5051896;28;20173;-80
2022/03/31 05:16:23;;;;;;;13.47;11.37;;;8.80;99.90;;;;;;5050564;28;20197;-80
2022/03/31 05:18:48;;;;;;;14.23;11.40;;;8.80;99.90;;;;;;5051482;28;20199;-79
2022/03/31 05:21:15;;;;;;;16.40;12.47;;;8.80;99.90;;;;;;5051611;28;20173;-80
2022/03/31 05:23:40;;;;;;;12.80;9.50;;;8.70;99.90;;;;;;5051888;28;20175;-79
2022/03/31 05:26:06;;;;;;;14.30;12.80;;;8.70;99.90;;;;;;5055210;28;20271;-80
2022/03/31 05:28:32;;;;;;;13.40;10.40;;;8.70;99.90;;;;;;5032616;28;20173;-79
2022/03/31 05:30:58;;;;;;;20.20;13.97;;;8.70;99.90;;;;;;5031531;28;20634;-79
2022/03/31 05:33:24;;;;;;;12.90;10.63;;;8.70;99.90;;;;;;5030507;28;20657;-79
2022/03/31 05:35:50;;;;;;;15.87;11.43;;;8.70;99.90;;;;;;5031535;28;20608;-79
2022/03/31 05:38:15;;;;;;;14.17;11.80;;;8.70;99.90;;;;;;5029205;28;20165;-79
2022/03/31 05:40:41;;;;;;;14.40;11.80;;;8.70;99.90;;;;;;5030709;28;20754;-79
2022/03/31 05:43:07;;;;;;;13.63;11.50;;;8.70;99.90;;;;;;5032446;28;20169;-80
2022/03/31 05:45:33;;;;;;;12.17;10.87;;;8.70;99.90;;;;;;5029500;28;21214;-79
2022/03/31 05:47:59;;;;;;;12.23;10.73;;;8.70;99.90;;;;;;5030713;28;20237;-79
2022/03/31 05:50:24;;;;;;;13.27;10.60;;;8.70;99.90;;;;;;5031116;28;20630;-79
2022/03/31 05:52:50;;;;;;;14.90;11.30;;;8.70;99.90;;;;;;5031264;28;20564;-80
2022/03/31 05:55:18;;;;;;;18.37;12.37;;;8.70;99.90;;;;;;5030856;28;20605;-80
2022/03/31 05:57:44;;;;;;;18.63;13.73;;;8.70;99.90;;;;;;5029454;28;20583;-80
2022/03/31 06:00:16;;;;;;;14.07;11.50;;;8.70;99.90;;;;;;5031298;28;20210;-79
2022/03/31 06:02:42;;;;;;;15.43;12.05;;;8.60;99.90;;;;;;5035027;28;20561;-80
2022/03/31 06:05:08;;;;;;;15.73;11.40;;;8.60;99.90;;;;;;5031698;28;20194;-79
2022/03/31 06:07:34;;;;;;;14.75;10.52;;;8.50;99.90;;;;;;5030572;28;20565;-78
2022/03/31 06:10:00;;;;;;;13.90;11.93;;;8.50;99.90;;;;;;5029243;28;20174;-78
2022/03/31 06:12:26;;;;;;;14.33;12.50;;;8.50;99.90;;;;;;5031070;28;20643;-78
2022/03/31 06:14:52;;;;;;;14.73;11.57;;;8.40;99.90;;;;;;5032514;28;20533;-78
2022/03/31 06:17:18;;;;;;;14.33;10.87;;;8.40;99.90;;;;;;5033607;28;20173;-78
2022/03/31 06:19:43;;;;;;;13.57;12.07;;;8.40;99.90;;;;;;5027737;28;20665;-78
2022/03/31 06:22:09;;;;;;;15.43;12.10;;;8.40;99.90;;;;;;5034112;28;20232;-78
2022/03/31 06:24:35;;;;;;;12.43;10.10;;;8.40;99.90;;;;;;5034155;28;20189;-79
2022/03/31 06:27:02;;;;;;;13.13;11.73;;;8.50;99.90;;;;;;5034244;28;20882;-78
2022/03/31 06:29:29;;;;;;;14.38;12.30;;;8.50;99.90;;;;;;5033780;28;20215;-78
2022/03/31 06:31:55;;;;;;;15.68;11.85;;;8.50;99.90;;;;;;5032505;28;20178;-78
2022/03/31 06:34:22;;;;;;;16.93;12.80;;;8.50;99.90;;;;;;5034146;28;20181;-79
2022/03/31 06:36:49;;;;;;;16.88;12.32;;;8.50;99.90;;;;;;5034291;28;20578;-78
2022/03/31 06:39:15;;;;;;;14.13;10.70;;;8.50;99.90;;;;;;5035777;28;20197;-80
2022/03/31 06:41:42;;;;;;;14.52;11.73;;;8.50;99.90;;;;;;5035467;28;20195;-78
2022/03/31 06:44:08;;;;;;;12.80;10.30;;;8.50;99.90;;;;;;5034335;28;20174;-80
2022/03/31 06:46:35;;;;;;;15.10;11.55;;;8.50;99.90;;;;;;5033896;28;20825;-79
2022/03/31 06:49:01;;;;;;;13.73;10.55;;;8.50;99.90;;;;;;5033520;28;20595;-80
2022/03/31 06:51:28;;;;;;;15.32;10.70;;;8.50;99.90;;;;;;5034881;28;20242;-79
2022/03/31 06:53:57;;;;;;;18.85;13.73;;;8.50;99.90;;;;;;5033318;28;20166;-79
2022/03/31 06:56:27;;;;;;;16.33;12.73;;;8.50;99.90;;;;;;5043850;28;20199;-78
2022/03/31 06:58:53;;;;;;;16.42;12.77;;;8.40;99.90;;;;;;5045150;28;20560;-77
2022/03/31 07:01:20;;;;;;;13.65;11.52;;;8.40;99.90;;;;;;5027225;28;20631;-79
2022/03/31 07:03:47;;;;;;;17.95;13.40;;;8.40;99.90;;;;;;5034323;28;20533;-78
2022/03/31 07:06:12;;;;;;;16.50;10.90;;;8.30;99.90;;;;;;5032373;28;20194;-78
2022/03/31 07:08:38;;;;;;;17.93;12.53;;;8.30;99.90;;;;;;5033276;28;20308;-78
2022/03/31 07:11:05;;;;;;;14.03;11.03;;;8.30;99.90;;;;;;5033799;28;20176;-78
2022/03/31 07:13:30;;;;;;;19.30;13.57;;;8.40;99.90;;;;;;5016081;28;20746;-78
2022/03/31 07:15:56;;;;;;;15.60;12.03;;;8.30;99.90;;;;;;5034284;28;20216;-79
2022/03/31 07:18:22;;;;;;;13.15;10.80;;;8.30;99.90;;;;;;5036519;28;20252;-77
2022/03/31 07:20:50;;;;;;;15.63;11.98;;;8.30;99.90;;;;;;5033589;28;20368;-78
2022/03/31 07:23:23;;;;;;;13.68;11.10;;;8.30;99.90;;;;;;5034246;28;20537;-80
2022/03/31 07:25:50;;;;;;;15.35;12.50;;;8.30;99.90;;;;;;5031491;28;20189;-79
2022/03/31 07:28:16;;;;;;;13.15;10.95;;;8.30;99.90;;;;;;5031931;28;20174;-79
2022/03/31 07:30:42;;;;;;;12.82;11.05;;;8.30;99.90;;;;;;5033271;28;20181;-79
2022/03/31 07:33:09;;;;;;;12.18;10.55;;;8.30;99.90;;;;;;5034223;28;20170;-79
2022/03/31 07:35:39;;;;;;;16.83;12.35;;;8.40;99.90;;;;;;5032223;28;20585;-79
2022/03/31 07:38:08;;;;;;;14.98;11.88;;;8.40;99.90;;;;;;5033776;28;20867;-79
2022/03/31 07:40:36;;;;;;;13.70;11.55;;;8.50;99.90;;;;;;5033722;28;20201;-79
2022/03/31 07:43:02;;;;;;;18.58;11.98;;;8.40;99.90;;;;;;5033574;28;20529;-80
2022/03/31 07:45:29;;;;;;;17.30;12.70;;;8.40;99.90;;;;;;5032732;28;20255;-79
2022/03/31 07:47:55;;;;;;;14.30;10.75;;;8.40;99.90;;;;;;5031897;28;20526;-79
2022/03/31 07:50:21;;;;;;;11.88;10.13;;;8.40;99.90;;;;;;5032835;28;20176;-79
2022/03/31 07:52:49;;;;;;;13.60;11.15;;;8.40;99.90;;;;;;5034006;28;20182;-79
2022/03/31 07:55:16;;;;;;;12.60;10.80;;;8.40;99.90;;;;;;5037754;28;20193;-79
2022/03/31 07:57:43;;;;;;;20.05;14.50;;;8.50;99.90;;;;;;5032393;28;20185;-79
2022/03/31 08:00:11;;;;;;;14.73;11.85;;;8.50;99.90;;;;;;5032254;28;20221;-80
2022/03/31 08:02:41;;;;;;;17.15;10.95;;;8.50;99.90;;;;;;5032409;28;20166;-79
2022/03/31 08:05:09;;;;;;;15.35;11.52;;;8.50;99.90;;;;;;5031128;28;20190;-79
2022/03/31 08:07:36;;;;;;;12.70;9.52;;;8.60;99.90;;;;;;5031283;28;20603;-79
2022/03/31 08:10:02;;;;;;;13.63;10.60;;;8.70;99.90;;;;;;5032242;28;20177;-80
2022/03/31 08:12:28;;;;;;;13.82;10.57;;;8.70;99.90;;;;;;5032168;28;20175;-79
2022/03/31 08:14:54;;;;;;;15.00;10.23;;;8.60;99.90;;;;;;5032309;28;20557;-79
2022/03/31 08:17:20;;;;;;;18.13;12.27;;;8.60;99.90;;;;;;5032129;28;20264;-80
2022/03/31 08:19:47;;;;;;;14.25;10.70;;;8.60;99.90;;;;;;5031386;28;20197;-80
2022/03/31 08:22:12;;;;;;;12.45;11.18;;;8.60;99.90;;;;;;5032738;28;20185;-80
2022/03/31 08:24:38;;;;;;;10.20;9.00;;;8.60;99.90;;;;;;5032486;28;20216;-80
2022/03/31 08:27:05;;;;;;;12.97;9.63;;;8.60;99.90;;;;;;5031134;28;20213;-80
2022/03/31 08:29:31;;;;;;;11.68;9.48;;;8.70;99.90;;;;;;5032656;28;20607;-80
2022/03/31 08:31:57;;;;;;;10.93;9.68;;;8.70;99.90;;;;;;5036614;28;20252;-80
2022/03/31 08:34:23;;;;;;;10.90;8.65;;;8.80;99.90;;;;;;5032170;28;20174;-79
2022/03/31 08:36:50;;;;;;;10.50;9.40;;;8.80;99.90;;;;;;5031971;28;20242;-79
2022/03/31 08:39:16;;;;;;;12.43;9.90;;;8.90;99.90;;;;;;5032025;28;20201;-78
2022/03/31 08:41:44;;;;;;;13.40;10.82;;;9.00;99.90;;;;;;5014194;28;20174;-77
2022/03/31 08:44:13;;;;;;;11.23;9.52;;;9.00;99.90;;;;;;5031070;28;20169;-74
2022/03/31 08:46:39;;;;;;;13.70;10.55;;;9.10;99.90;;;;;;5031527;28;20194;-74
2022/03/31 08:49:07;;;;;;;11.65;9.55;;;9.10;99.90;;;;;;5031368;28;20252;-74
2022/03/31 08:51:33;;;;;;;13.57;10.10;;;9.20;99.90;;;;;;5031674;28;20217;-74
2022/03/31 08:53:59;;;;;;;11.53;10.27;;;9.20;99.90;;;;;;5031331;28;20178;-74
2022/03/31 08:56:24;;;;;;;13.97;10.70;;;9.30;99.90;;;;;;5031904;28;20308;-75
2022/03/31 08:58:50;;;;;;;11.13;9.13;;;9.30;99.90;;;;;;5031286;28;20161;-74
2022/03/31 09:01:16;;;;;;;12.67;10.57;;;9.40;99.90;;;;;;5030825;28;20182;-74
2022/03/31 09:03:43;;;;;;;13.13;11.25;;;9.40;99.90;;;;;;5031281;28;20185;-74
2022/03/31 09:06:21;;;;;;;11.20;10.10;;;9.40;99.90;;;;;;5031559;28;20248;-74
2022/03/31 09:09:02;;;;;;;11.90;10.25;;;9.50;99.90;;;;;;5026720;28;20177;-74
2022/03/31 09:11:29;;;;;;;15.68;11.02;;;9.60;99.90;;;;;;5028358;28;20174;-74
2022/03/31 09:13:57;;;;;;;13.05;10.55;;;9.60;99.90;;;;;;5026391;28;20646;-73
2022/03/31 09:16:49;;;;;;;12.00;9.15;;;9.60;99.90;;;;;;5029090;28;20193;-74
2022/03/31 09:19:15;;;;;;;13.80;10.68;;;9.70;99.90;;;;;;5006557;28;20705;-74
2022/03/31 09:21:58;;;;;;;10.15;9.15;;;9.70;99.90;;;;;;5021345;28;20873;-74
2022/03/31 09:24:27;;;;;;;12.65;9.70;;;9.70;99.90;;;;;;5030764;28;20176;-73
2022/03/31 09:26:54;;;;;;;12.73;9.70;;;9.70;99.90;;;;;;5031158;28;20173;-74
2022/03/31 09:29:25;;;;;;;14.00;10.38;;;9.70;99.90;;;;;;5029236;28;20646;-74
2022/03/31 09:31:54;;;;;;;15.35;10.05;;;9.80;99.90;;;;;;5030762;28;20178;-74
2022/03/31 09:34:20;;;;;;;11.63;9.48;;;9.80;99.90;;;;;;5030964;28;20177;-74
2022/03/31 09:36:51;;;;;;;13.10;10.05;;;9.80;99.90;;;;;;5030922;28;20522;-74
2022/03/31 09:39:19;;;;;;;11.13;9.80;;;9.80;99.90;;;;;;5029909;28;20232;-74
2022/03/31 09:41:47;;;;;;;12.25;10.00;;;9.80;99.90;;;;;;5030512;28;20781;-74
2022/03/31 09:44:17;;;;;;;16.08;11.00;;;9.80;99.90;;;;;;5008987;28;20264;-75
2022/03/31 09:46:44;;;;;;;13.10;9.85;;;9.80;99.90;;;;;;5028050;28;20174;-75
2022/03/31 09:49:23;;;;;;;12.50;9.70;;;9.90;99.90;;;;;;5029434;28;20174;-74
2022/03/31 09:52:07;;;;;;;17.17;11.00;;;9.80;99.90;;;;;;5034817;28;20195;-74
2022/03/31 09:54:33;;;;;;;13.27;10.35;;;9.80;99.90;;;;;;5034627;28;20174;-74
2022/03/31 09:57:01;;;;;;;16.70;11.10;;;9.80;99.90;;;;;;5033484;28;20181;-74
2022/03/31 09:59:31;;;;;;;15.00;10.27;;;9.90;99.90;;;;;;5034272;28;20197;-74
2022/03/31 10:01:57;;;;;;;12.90;10.55;;;9.90;99.90;;;;;;5033890;28;20261;-74
2022/03/31 10:04:24;;;;;;;14.50;11.90;;;9.90;99.90;;;;;;5033014;28;20244;-75
2022/03/31 10:06:50;;;;;;;12.60;10.10;;;10.00;99.90;;;;;;5030125;28;21141;-74
2022/03/31 10:09:17;;;;;;;11.82;10.63;;;10.00;99.90;;;;;;5014060;28;20221;-75
2022/03/31 10:11:45;;;;;;;14.55;11.55;;;10.00;99.90;;;;;;5020127;28;20905;-74
2022/03/31 10:14:32;;;;;;;14.80;11.82;;;10.10;99.90;;;;;;5034061;28;20186;-75
2022/03/31 10:17:00;;;;;;;11.15;9.98;;;10.10;99.90;;;;;;5033014;28;20173;-75
2022/03/31 10:19:29;;;;;;;15.85;10.90;;;10.10;99.90;;;;;;5027929;28;20700;-75
2022/03/31 10:22:03;;;;;;;13.82;11.02;;;10.10;99.90;;;;;;5035857;28;20174;-74
2022/03/31 10:24:42;;;;;;;12.55;10.40;;;10.20;99.90;;;;;;5033996;28;20196;-75
2022/03/31 10:27:32;;;;;;;12.88;11.48;;;10.20;99.90;;;;;;5033956;28;20176;-75
2022/03/31 10:30:18;;;;;;;12.07;9.23;;;10.20;99.90;;;;;;5033992;28;20251;-75
2022/03/31 10:33:04;;;;;;;14.23;11.10;;;10.30;99.90;;;;;;5032929;28;20212;-75
2022/03/31 10:35:38;;;;;;;14.27;11.30;;;10.30;99.90;;;;;;5033934;28;20285;-75
2022/03/31 10:38:13;;;;;;;14.93;11.75;;;10.30;99.90;;;;;;5032659;28;20177;-75
2022/03/31 10:40:42;;;;;;;12.93;9.95;;;10.30;99.90;;;;;;5033668;28;20233;-75
2022/03/31 10:43:28;;;;;;;12.07;10.82;;;10.30;99.90;;;;;;5033917;28;20733;-75
2022/03/31 10:45:54;;;;;;;11.80;9.70;;;10.30;99.90;;;;;;5032211;28;20296;-75
2022/03/31 10:48:24;;;;;;;14.75;10.45;;;10.40;99.90;;;;;;5032396;28;20185;-76
2022/03/31 10:51:30;;;;;;;12.45;9.95;;;10.40;99.90;;;;;;5032277;28;20630;-75
2022/03/31 10:53:56;;;;;;;12.73;10.25;;;10.40;99.90;;;;;;5019157;28;20578;-75
2022/03/31 10:56:26;;;;;;;14.37;11.33;;;10.30;99.90;;;;;;5033220;28;20276;-75
2022/03/31 10:58:58;;;;;;;13.73;11.02;;;10.30;99.90;;;;;;5053271;28;20216;-76
2022/03/31 11:01:28;;;;;;;17.33;11.40;;;10.30;99.90;;;;;;5052368;28;20180;-76
2022/03/31 11:04:04;;;;;;;12.77;10.30;;;10.20;99.90;;;;;;5052481;28;20505;-76
2022/03/31 11:06:30;;;;;;;14.88;11.13;;;10.10;99.90;;;;;;5043975;28;20255;-76
2022/03/31 11:08:56;;;;;;;17.70;12.88;;;10.10;99.90;;;;;;5032378;28;20215;-76
2022/03/31 11:11:25;;;;;;;12.68;9.52;;;10.00;99.90;;;;;;5032318;28;20252;-76
2022/03/31 11:13:51;;;;;;;12.15;9.10;;;10.00;99.90;;;;;;5032572;28;20492;-76
2022/03/31 11:16:18;;;;;;;11.23;9.25;;;9.90;99.90;;;;;;5032077;28;20224;-76
2022/03/31 11:18:56;;;;;;;13.68;10.65;;;9.90;99.90;;;;;;5032087;28;20300;-76
2022/03/31 11:21:23;;;;;;;11.00;9.80;;;9.90;99.90;;;;;;5030878;28;20165;-76
2022/03/31 11:23:50;;;;;;;13.48;11.95;;;9.90;99.90;;;;;;5033557;28;20184;-75
2022/03/31 11:26:40;;;;;;;12.98;10.32;;;9.90;99.90;;;;;;5032957;28;20198;-75
2022/03/31 11:29:13;;;;;;;15.10;10.85;;;9.90;99.90;;;;;;5033020;28;20174;-76
2022/03/31 11:31:52;;;;;;;13.90;11.27;;;9.80;99.90;;;;;;5026823;28;20178;-76
2022/03/31 11:34:26;;;;;;;13.90;11.68;;;9.80;99.90;;;;;;5034210;28;20205;-76
2022/03/31 11:36:53;;;;;;;16.75;11.18;;;9.80;99.90;;;;;;5034228;28;20189;-75
2022/03/31 11:39:21;;;;;;;12.50;10.82;;;9.80;99.90;;;;;;5032850;28;20224;-76
2022/03/31 11:41:47;;;;;;;15.75;11.73;;;9.80;99.90;;;;;;5032833;28;20218;-76
2022/03/31 11:44:12;;;;;;;14.18;11.50;;;9.70;99.90;;;;;;5015043;28;20170;-75
2022/03/31 11:46:45;;;;;;;13.57;11.30;;;9.70;99.90;;;;;;5031252;28;20205;-76
2022/03/31 11:49:20;;;;;;;14.68;11.20;;;9.70;99.90;;;;;;5031359;28;20560;-76
2022/03/31 11:52:00;;;;;;;11.88;9.85;;;9.70;99.90;;;;;;5032519;28;20306;-77
2022/03/31 11:54:28;;;;;;;10.85;9.07;;;9.60;99.90;;;;;;5031613;28;20238;-76
2022/03/31 11:57:03;;;;;;;13.70;9.70;;;9.50;99.90;;;;;;5032469;28;20657;-76
2022/03/31 11:59:30;;;;;;;15.20;10.52;;;9.50;99.90;;;;;;5032428;28;20188;-76
2022/03/31 12:01:56;;;;;;;12.85;9.90;;;9.50;99.90;;;;;;5032250;28;20219;-77
2022/03/31 12:04:24;;;;;;;12.05;9.05;;;9.50;99.90;;;;;;5031289;28;20170;-76
2022/03/31 12:06:55;;;;;;;15.00;9.63;;;9.50;99.90;;;;;;5032178;28;20192;-77
2022/03/31 12:09:28;;;;;;;10.20;8.57;;;9.60;99.90;;;;;;5032636;28;20188;-76
2022/03/31 12:11:58;;;;;;;10.57;8.40;;;9.60;99.90;;;;;;5034191;28;20684;-76
2022/03/31 12:14:25;;;;;;;12.85;9.30;;;9.60;99.90;;;;;;5032514;28;20535;-76
2022/03/31 12:16:54;;;;;;;10.30;8.48;;;9.60;99.90;;;;;;5044745;28;20174;-76
2022/03/31 12:19:21;;;;;;;9.68;7.70;;;9.60;99.90;;;;;;5047599;28;20288;-76
2022/03/31 12:21:51;;;;;;;15.13;10.23;;;9.60;99.90;;;;;;5044009;28;20184;-77
2022/03/31 12:24:17;;;;;;;10.15;8.75;;;9.60;99.90;;;;;;5044022;28;20173;-76
2022/03/31 12:26:58;;;;;;;13.15;8.75;;;9.70;99.90;;;;;;5052784;28;20169;-76
2022/03/31 12:29:27;;;;;;;8.63;7.70;;;9.60;99.90;;;;;;5052256;28;20169;-76
2022/03/31 12:32:07;;;;;;;11.45;8.55;;;9.70;99.90;;;;;;5052861;28;20181;-76
2022/03/31 12:34:38;;;;;;;10.07;8.68;;;9.70;99.90;;;;;;5051437;28;20520;-75
2022/03/31 12:37:05;;;;;;;10.35;8.35;;;9.70;99.90;;;;;;5052198;28;20602;-76
2022/03/31 12:39:40;;;;;;;10.60;8.73;;;9.70;99.90;;;;;;5052202;28;20200;-76
2022/03/31 12:42:08;;;;;;;11.40;9.07;;;9.60;99.90;;;;;;5045872;28;20578;-76
2022/03/31 12:44:39;;;;;;;9.82;8.68;;;9.60;99.90;;;;;;5032332;28;20186;-75
2022/03/31 12:47:06;;;;;;;12.02;9.65;;;9.60;99.90;;;;;;5031639;28;20209;-75